Time;durP1;ratioP1;P1;durP2;ratioP2;P2;SDS_P1;SDS_P2;PMS_P1;PMS_P2;Temp;Humidity;BMP_temperature;BMP_pressure;BME280_temperature;BME280_humidity;BME280_pressure;Samples;Min_cycle;Max_cycle;Signal;HPM_P1;HPM_P2
2022/08/04 00:00:11;;;;;;;;;1.00;1.00;;;;;28.90;40.59;100822.50;5018914;28;45617;-66
2022/08/04 00:03:00;;;;;;;;;1.00;1.00;;;;;28.89;40.69;100824.41;5017725;28;45360;-66
2022/08/04 00:05:29;;;;;;;;;2.00;2.00;;;;;28.87;40.36;100823.72;5008090;28;45296;-66
2022/08/04 00:08:20;;;;;;;;;3.00;1.50;;;;;28.87;40.56;100812.72;5019776;28;47388;-66
2022/08/04 00:10:57;;;;;;;;;1.50;1.50;;;;;28.86;40.16;100819.25;5019105;28;45490;-67
2022/08/04 00:13:30;;;;;;;;;1.25;1.25;;;;;28.86;41.17;100812.88;5019968;28;45350;-66
2022/08/04 00:16:04;;;;;;;;;1.25;1.00;;;;;28.83;40.83;100817.69;5019655;28;45471;-67
2022/08/04 00:18:36;;;;;;;;;1.75;1.50;;;;;28.81;40.72;100818.88;5019591;28;45312;-67
2022/08/04 00:21:04;;;;;;;;;2.25;2.25;;;;;28.77;40.74;100810.13;5017545;28;45159;-66
2022/08/04 00:23:33;;;;;;;;;2.75;1.50;;;;;28.77;40.75;100812.00;5018987;28;45392;-66
2022/08/04 00:26:00;;;;;;;;;4.00;2.00;;;;;28.74;41.53;100813.19;5016184;28;45162;-67
2022/08/04 00:28:26;;;;;;;;;2.00;2.00;;;;;28.69;40.70;100812.00;5019518;28;45436;-67
2022/08/04 00:30:53;;;;;;;;;2.00;2.00;;;;;28.69;40.95;100817.47;5019620;28;45293;-67
2022/08/04 00:33:19;;;;;;;;;2.25;1.25;;;;;28.66;41.06;100810.41;5019884;28;45338;-67
2022/08/04 00:35:47;;;;;;;;;0.00;0.00;;;;;28.66;40.80;100821.41;5019555;28;45458;-67
2022/08/04 00:38:16;;;;;;;;;1.00;1.00;;;;;28.62;41.06;100817.28;5019653;28;45280;-66
2022/08/04 00:41:13;;;;;;;;;2.00;2.00;;;;;28.62;41.63;100814.53;5019111;28;45447;-66
2022/08/04 00:43:56;;;;;;;;;1.00;0.50;;;;;28.56;40.63;100817.94;5019452;28;45290;-67
2022/08/04 00:46:40;;;;;;;;;0.25;0.25;;;;;28.53;40.72;100813.59;5019706;28;45163;-67
2022/08/04 00:49:17;;;;;;;;;2.00;2.00;;;;;28.51;40.60;100821.13;5019410;28;47187;-66
2022/08/04 00:51:53;;;;;;;;;2.00;1.00;;;;;28.49;41.71;100814.09;5018283;28;45400;-66
2022/08/04 00:54:37;;;;;;;;;1.25;1.25;;;;;28.48;41.57;100815.13;5019189;28;45425;-66
2022/08/04 00:57:21;;;;;;;;;3.00;2.00;;;;;28.43;41.71;100821.97;5019148;28;45292;-66
2022/08/04 01:00:10;;;;;;;;;2.25;0.25;;;;;28.40;41.70;100808.59;5019227;28;45530;-66
2022/08/04 01:02:38;;;;;;;;;1.25;1.25;;;;;28.37;40.96;100814.41;5019504;28;45395;-66
2022/08/04 01:05:26;;;;;;;;;0.25;0.25;;;;;28.35;41.46;100813.72;5019273;28;45297;-67
2022/08/04 01:08:01;;;;;;;;;1.25;0.75;;;;;28.35;41.61;100805.47;5019105;28;45416;-66
2022/08/04 01:10:44;;;;;;;;;1.00;0.25;;;;;28.35;41.17;100804.59;5018962;28;46249;-66
2022/08/04 01:13:42;;;;;;;;;1.50;1.50;;;;;28.31;41.68;100803.22;5018913;28;45372;-66
2022/08/04 01:16:10;;;;;;;;;2.00;2.00;;;;;28.28;41.90;100798.91;5014750;28;45317;-67
2022/08/04 01:18:45;;;;;;;;;1.50;1.25;;;;;28.28;42.49;100807.13;5019260;28;45367;-66
2022/08/04 01:21:28;;;;;;;;;2.00;2.00;;;;;28.26;42.07;100811.94;5017741;28;46164;-66
2022/08/04 01:24:28;;;;;;;;;2.00;2.00;;;;;28.23;42.26;100801.28;5022258;28;45367;-67
2022/08/04 01:27:25;;;;;;;;;2.00;2.00;;;;;28.23;42.33;100807.66;5022475;28;45245;-66
2022/08/04 01:29:55;;;;;;;;;3.75;3.75;;;;;28.15;42.35;100796.63;5022625;28;45164;-66
2022/08/04 01:32:31;;;;;;;;;2.00;2.00;;;;;28.19;42.35;100808.97;5020899;28;46956;-66
2022/08/04 01:35:12;;;;;;;;;5.00;3.75;;;;;28.18;42.44;100807.25;5022294;28;45467;-66
2022/08/04 01:38:24;;;;;;;;;3.75;3.00;;;;;28.14;42.90;100811.34;5022318;28;45508;-66
2022/08/04 01:40:52;;;;;;;;;2.75;2.00;;;;;28.12;42.42;100809.78;5011212;28;45322;-66
2022/08/04 01:43:19;;;;;;;;;3.75;3.00;;;;;28.07;43.10;100802.06;5021868;28;46515;-66
2022/08/04 01:45:49;;;;;;;;;1.25;1.25;;;;;28.10;42.51;100804.47;5020587;28;45329;-66
2022/08/04 01:48:21;;;;;;;;;2.25;2.00;;;;;28.03;43.05;100797.91;5022281;28;45281;-66
2022/08/04 01:50:48;;;;;;;;;1.50;1.50;;;;;28.03;43.03;100797.91;5020199;28;45624;-66
2022/08/04 01:53:14;;;;;;;;;2.50;1.75;;;;;28.04;42.81;100792.25;5021503;28;46140;-66
2022/08/04 01:55:40;;;;;;;;;2.00;1.75;;;;;28.04;43.35;100800.50;5020969;28;45225;-66
2022/08/04 01:58:06;;;;;;;;;1.25;1.25;;;;;28.03;43.06;100798.78;5021878;28;45245;-66
2022/08/04 02:00:32;;;;;;;;;1.00;1.00;;;;;28.00;43.06;100795.47;5021773;28;45642;-66
2022/08/04 02:02:57;;;;;;;;;4.25;2.50;;;;;28.00;42.77;100792.75;5021743;28;45303;-66
2022/08/04 02:05:25;;;;;;;;;3.00;1.50;;;;;28.00;43.21;100798.22;5037013;28;46946;-66
2022/08/04 02:08:01;;;;;;;;;2.00;2.00;;;;;27.96;43.27;100786.72;5022013;28;45444;-66
2022/08/04 02:10:49;;;;;;;;;1.25;1.25;;;;;27.94;43.20;100782.44;5021487;28;45305;-66
2022/08/04 02:13:56;;;;;;;;;2.25;1.25;;;;;27.90;43.13;100784.63;5021329;28;46973;-67
2022/08/04 02:16:46;;;;;;;;;1.25;1.25;;;;;27.88;43.37;100781.16;5017115;28;45147;-66
2022/08/04 02:19:24;;;;;;;;;4.00;2.00;;;;;27.86;43.65;100788.69;5021730;28;45323;-66
2022/08/04 02:21:56;;;;;;;;;3.25;2.25;;;;;27.84;43.19;100793.47;5020359;28;45403;-66
2022/08/04 02:24:26;;;;;;;;;1.25;1.25;;;;;27.82;43.68;100790.91;5020474;28;45572;-66
2022/08/04 02:26:55;;;;;;;;;3.00;3.00;;;;;27.82;43.44;100790.91;5021401;28;45328;-66
2022/08/04 02:29:47;;;;;;;;;1.50;1.50;;;;;27.80;43.77;100778.34;5021468;28;45309;-66
2022/08/04 02:32:28;;;;;;;;;1.25;1.25;;;;;27.75;43.40;100776.13;5021025;28;45308;-66
2022/08/04 02:35:02;;;;;;;;;3.50;3.50;;;;;27.75;43.33;100764.25;5021445;28;46362;-66
2022/08/04 02:37:31;;;;;;;;;2.25;1.75;;;;;27.72;43.89;100760.84;5021451;28;45347;-66
2022/08/04 02:39:59;;;;;;;;;2.00;2.00;;;;;27.70;43.85;100762.03;5019861;28;45470;-66
2022/08/04 02:42:27;;;;;;;;;2.00;2.00;;;;;27.68;44.24;100767.66;5021016;28;45391;-66
2022/08/04 02:44:56;;;;;;;;;3.50;2.75;;;;;27.69;43.97;100774.00;5021056;28;45424;-66
2022/08/04 02:47:24;;;;;;;;;2.50;2.50;;;;;27.64;43.68;100771.75;5021150;28;45437;-66
2022/08/04 02:49:51;;;;;;;;;2.25;2.25;;;;;27.67;43.82;100776.06;5021303;28;45329;-66
2022/08/04 02:52:17;;;;;;;;;3.25;2.00;;;;;27.63;43.79;100772.78;5018283;28;45545;-66
2022/08/04 02:54:45;;;;;;;;;3.00;2.25;;;;;27.64;43.66;100773.63;5020539;28;45548;-66
2022/08/04 02:57:12;;;;;;;;;1.25;1.25;;;;;27.56;43.82;100768.94;5020750;28;45184;-66
2022/08/04 03:00:10;;;;;;;;;2.50;2.50;;;;;27.59;44.17;100786.97;5021181;28;45324;-66
2022/08/04 03:02:57;;;;;;;;;4.00;2.00;;;;;27.57;43.85;100791.75;5020982;28;45304;-66
2022/08/04 03:06:01;;;;;;;;;4.75;2.00;;;;;27.53;43.86;100792.06;5019796;28;45451;-66
2022/08/04 03:08:29;;;;;;;;;3.00;2.00;;;;;27.50;44.02;100795.13;5002893;28;45361;-66
2022/08/04 03:11:28;;;;;;;;;1.00;0.25;;;;;27.46;44.37;100790.97;5020809;28;45291;-66
2022/08/04 03:14:15;;;;;;;;;4.00;3.00;;;;;27.44;44.55;100787.53;5020752;28;45458;-66
2022/08/04 03:16:59;;;;;;;;;2.00;2.00;;;;;27.41;44.89;100786.97;5020573;28;46257;-66
2022/08/04 03:19:57;;;;;;;;;2.00;2.00;;;;;27.36;44.57;100787.44;5020552;28;45478;-66
2022/08/04 03:22:42;;;;;;;;;1.25;1.25;;;;;27.34;44.83;100786.75;5020705;28;45336;-66
2022/08/04 03:25:36;;;;;;;;;2.75;2.75;;;;;27.31;44.98;100790.66;5020374;28;45292;-66
2022/08/04 03:28:32;;;;;;;;;1.25;1.25;;;;;27.30;44.99;100785.38;5020284;28;45412;-66
2022/08/04 03:31:16;;;;;;;;;2.50;1.75;;;;;27.29;44.79;100791.84;5020392;28;45412;-66
2022/08/04 03:34:15;;;;;;;;;3.00;3.00;;;;;27.25;44.96;100788.53;5020514;28;45344;-66
2022/08/04 03:37:24;;;;;;;;;2.75;2.75;;;;;27.24;44.97;100778.59;5019013;28;45232;-66
2022/08/04 03:40:21;;;;;;;;;2.50;2.50;;;;;27.21;44.83;100769.81;5006546;28;46327;-66
2022/08/04 03:43:15;;;;;;;;;3.75;2.50;;;;;27.18;45.17;100773.72;5020061;28;45249;-66
2022/08/04 03:46:06;;;;;;;;;3.00;3.00;;;;;27.17;45.17;100783.84;5019208;28;45440;-66
2022/08/04 03:48:46;;;;;;;;;3.50;2.00;;;;;27.16;45.19;100787.59;5020284;28;45169;-66
2022/08/04 03:54:58;;;;;;;;;2.50;2.50;;;;;27.11;45.12;100784.44;5019927;28;45435;-66
2022/08/04 03:57:40;;;;;;;;;3.50;3.50;;;;;27.07;45.51;100783.06;5020368;28;45300;-66
2022/08/04 04:00:16;;;;;;;;;5.75;3.00;;;;;26.99;45.28;100772.00;5020010;28;45475;-66
2022/08/04 04:03:01;;;;;;;;;3.25;2.25;;;;;26.96;45.41;100766.84;5020000;28;45524;-66
2022/08/04 04:05:39;;;;;;;;;3.25;3.00;;;;;26.94;45.60;100767.00;5006738;28;45312;-66
2022/08/04 04:08:22;;;;;;;;;2.25;2.25;;;;;26.95;45.62;100756.94;5019980;28;45396;-66
2022/08/04 04:11:09;;;;;;;;;3.25;3.00;;;;;26.94;45.87;100758.78;5019808;28;45233;-66
2022/08/04 04:13:58;;;;;;;;;3.00;3.00;;;;;26.93;45.74;100764.41;5019688;28;45253;-66
2022/08/04 04:16:58;;;;;;;;;3.50;3.50;;;;;26.94;45.53;100777.94;5017835;28;45489;-66
2022/08/04 04:19:36;;;;;;;;;2.25;2.25;;;;;26.96;45.27;100788.75;5019951;28;45408;-66
2022/08/04 04:22:13;;;;;;;;;2.00;2.00;;;;;26.94;45.69;100791.66;5019945;28;45323;-66
2022/08/04 04:24:50;;;;;;;;;3.25;3.00;;;;;26.94;45.67;100793.53;5019515;28;45452;-66
2022/08/04 04:27:24;;;;;;;;;1.50;1.50;;;;;26.94;45.53;100801.75;5019532;28;45435;-66
2022/08/04 04:30:11;;;;;;;;;3.00;3.00;;;;;26.94;45.66;100808.09;5019954;28;45372;-66
2022/08/04 04:33:02;;;;;;;;;3.00;3.00;;;;;26.93;45.89;100806.38;5019612;28;45397;-66
2022/08/04 04:35:42;;;;;;;;;2.25;2.25;;;;;26.93;45.77;100803.63;5017829;28;46476;-66
2022/08/04 04:38:35;;;;;;;;;2.75;2.75;;;;;26.93;45.80;100798.16;5018742;28;45262;-66
2022/08/04 04:41:18;;;;;;;;;2.25;2.25;;;;;26.93;45.61;100795.41;5019296;28;45320;-66
2022/08/04 04:43:52;;;;;;;;;3.00;2.00;;;;;26.94;45.67;100804.50;5019253;28;45620;-66
2022/08/04 04:46:29;;;;;;;;;1.75;1.00;;;;;26.93;45.59;100821.94;5019583;28;45448;-66
2022/08/04 04:48:56;;;;;;;;;1.75;1.75;;;;;26.91;45.62;100833.03;5019537;28;45496;-66
2022/08/04 04:51:30;;;;;;;;;3.75;3.75;;;;;26.90;45.43;100853.25;5019506;28;45387;-66
2022/08/04 04:54:07;;;;;;;;;4.00;4.00;;;;;26.90;45.61;100858.72;5019133;28;45364;-66
2022/08/04 04:57:16;;;;;;;;;4.25;3.75;;;;;26.85;46.13;100839.16;5020931;28;45344;-66
2022/08/04 04:59:49;;;;;;;;;3.00;2.50;;;;;26.81;46.37;100851.41;5011169;28;45173;-67
2022/08/04 05:02:34;;;;;;;;;2.25;2.25;;;;;26.79;46.33;100859.78;5022935;28;45597;-66
2022/08/04 05:05:20;;;;;;;;;3.00;3.00;;;;;26.73;46.30;100843.97;5020611;28;45218;-66
2022/08/04 05:08:04;;;;;;;;;3.00;3.00;;;;;26.68;46.49;100848.16;5022635;28;46092;-66
2022/08/04 05:11:03;;;;;;;;;3.00;2.00;;;;;26.60;46.26;100844.28;5022545;28;45198;-66
2022/08/04 05:13:31;;;;;;;;;2.75;2.25;;;;;26.57;46.51;100846.47;5022617;28;45285;-66
2022/08/04 05:16:04;;;;;;;;;3.75;2.50;;;;;26.53;46.55;100858.72;5022438;28;45260;-66
2022/08/04 05:18:34;;;;;;;;;2.00;1.75;;;;;26.50;46.67;100865.38;5022643;28;46088;-66
2022/08/04 05:21:40;;;;;;;;;3.00;2.25;;;;;26.47;46.37;100837.44;5022455;28;45229;-66
2022/08/04 05:24:09;;;;;;;;;2.00;2.00;;;;;26.32;46.54;100837.94;5022511;28;45278;-66
2022/08/04 05:26:40;;;;;;;;;4.00;3.50;;;;;26.31;46.78;100855.38;5022406;28;45550;-66
2022/08/04 05:29:10;;;;;;;;;2.25;2.25;;;;;26.26;46.50;100852.19;5022307;28;47020;-66
2022/08/04 05:31:39;;;;;;;;;4.00;3.50;;;;;26.23;46.70;100864.31;5022398;28;45422;-66
2022/08/04 05:34:18;;;;;;;;;1.75;1.75;;;;;26.20;46.57;100869.22;5022421;28;45522;-66
2022/08/04 05:36:50;;;;;;;;;3.25;3.25;;;;;26.19;46.85;100872.97;5021288;28;45371;-66
2022/08/04 05:39:27;;;;;;;;;3.00;3.00;;;;;26.19;47.00;100882.03;5021794;28;45330;-66
2022/08/04 05:41:53;;;;;;;;;2.00;2.00;;;;;26.18;46.77;100882.19;5021913;28;45379;-66
2022/08/04 05:44:21;;;;;;;;;1.50;1.50;;;;;26.16;46.61;100871.41;5022188;28;45713;-66
2022/08/04 05:46:50;;;;;;;;;3.75;3.00;;;;;26.15;46.26;100875.13;5022163;28;45312;-66
2022/08/04 05:49:16;;;;;;;;;4.25;3.25;;;;;26.13;46.41;100874.44;5022132;28;46259;-66
2022/08/04 05:51:43;;;;;;;;;1.75;1.75;;;;;26.13;46.75;100873.56;5019880;28;45481;-66
2022/08/04 05:54:09;;;;;;;;;4.00;2.00;;;;;26.12;46.76;100875.44;5021692;28;45456;-66
2022/08/04 05:56:36;;;;;;;;;2.50;2.50;;;;;26.10;46.77;100873.88;5021892;28;45507;-66
2022/08/04 05:59:02;;;;;;;;;2.00;2.00;;;;;26.10;46.23;100872.00;5021788;28;46076;-66
2022/08/04 06:01:29;;;;;;;;;4.25;3.00;;;;;26.09;46.59;100873.00;5021554;28;45241;-66
2022/08/04 06:03:57;;;;;;;;;2.00;2.00;;;;;26.05;46.28;100860.63;5022014;28;45451;-66
2022/08/04 06:06:24;;;;;;;;;2.25;2.25;;;;;26.09;46.99;100862.03;5021732;28;45447;-66
2022/08/04 06:08:50;;;;;;;;;4.00;4.00;;;;;26.06;46.92;100857.75;5020632;28;46301;-66
2022/08/04 06:11:18;;;;;;;;;3.25;3.25;;;;;26.07;46.27;100856.72;5020236;28;45623;-66
2022/08/04 06:13:50;;;;;;;;;2.25;2.25;;;;;26.07;47.29;100856.72;5021756;28;45380;-66
2022/08/04 06:16:19;;;;;;;;;3.00;2.75;;;;;26.05;47.17;100850.53;5021547;28;45312;-66
2022/08/04 06:18:49;;;;;;;;;2.75;2.75;;;;;26.06;47.14;100863.22;5021609;28;46377;-66
2022/08/04 06:21:19;;;;;;;;;3.00;3.00;;;;;26.07;46.66;100866.81;5021394;28;45515;-66
2022/08/04 06:23:45;;;;;;;;;3.75;2.00;;;;;26.02;47.19;100864.50;5021553;28;45382;-66
2022/08/04 06:26:18;;;;;;;;;3.00;2.00;;;;;26.06;46.60;100865.97;5021543;28;45245;-66
2022/08/04 06:28:46;;;;;;;;;4.00;4.00;;;;;26.07;46.71;100861.34;5021313;28;45973;-66
2022/08/04 06:31:20;;;;;;;;;4.50;2.25;;;;;26.07;46.82;100862.19;5021379;28;45229;-66
2022/08/04 06:33:47;;;;;;;;;2.50;1.00;;;;;26.09;46.88;100863.94;5021504;28;45281;-66
2022/08/04 06:36:14;;;;;;;;;5.00;2.75;;;;;26.08;46.42;100876.75;5021432;28;45239;-66
2022/08/04 06:38:41;;;;;;;;;2.75;2.75;;;;;26.10;46.77;100871.13;5020966;28;45464;-66
2022/08/04 06:41:08;;;;;;;;;5.25;3.00;;;;;26.10;46.73;100869.25;5018919;28;45666;-66
2022/08/04 06:43:35;;;;;;;;;2.75;2.25;;;;;26.09;46.09;100872.13;5019688;28;45259;-66
2022/08/04 06:46:03;;;;;;;;;2.75;2.75;;;;;26.05;46.38;100879.78;5021104;28;45438;-66
2022/08/04 06:48:31;;;;;;;;;2.25;2.25;;;;;26.04;46.70;100889.88;5021097;28;45387;-66
2022/08/04 06:50:58;;;;;;;;;5.75;3.25;;;;;26.06;46.34;100886.94;5021037;28;45357;-66
2022/08/04 06:53:25;;;;;;;;;2.00;2.00;;;;;26.02;46.61;100883.66;5020918;28;45229;-66
2022/08/04 06:55:52;;;;;;;;;2.50;2.50;;;;;25.99;46.90;100886.69;5020877;28;45479;-66
2022/08/04 06:58:20;;;;;;;;;4.25;4.00;;;;;26.03;46.61;100890.00;5020781;28;46029;-66
2022/08/04 07:00:47;;;;;;;;;4.50;2.00;;;;;26.05;46.36;100899.78;5020837;28;45404;-66
2022/08/04 07:03:14;;;;;;;;;5.00;3.00;;;;;26.05;46.76;100899.78;5019252;28;45490;-66
2022/08/04 07:05:40;;;;;;;;;3.75;2.00;;;;;26.05;46.53;100899.78;5021059;28;45229;-66
2022/08/04 07:08:09;;;;;;;;;2.00;1.75;;;;;26.05;46.63;100899.78;5020618;28;47049;-66
2022/08/04 07:10:36;;;;;;;;;6.00;5.00;;;;;26.08;46.34;100898.63;5020714;28;45496;-66
2022/08/04 07:13:02;;;;;;;;;3.00;3.00;;;;;26.11;46.46;100900.19;5020777;28;45489;-65
2022/08/04 07:15:28;;;;;;;;;4.25;3.50;;;;;26.10;46.54;100902.09;5020566;28;45443;-64
2022/08/04 07:18:00;;;;;;;;;3.50;2.00;;;;;26.06;46.66;100900.63;5020662;28;45269;-64
2022/08/04 07:20:27;;;;;;;;;4.00;3.25;;;;;26.05;46.25;100899.78;5019940;28;45332;-65
2022/08/04 07:22:53;;;;;;;;;3.00;2.25;;;;;26.09;46.76;100915.91;5018977;28;45303;-64
2022/08/04 07:25:19;;;;;;;;;3.50;2.00;;;;;26.10;46.42;100915.75;5020291;28;45459;-65
2022/08/04 07:27:45;;;;;;;;;4.75;3.25;;;;;26.14;46.30;100913.59;5018700;28;46392;-64
2022/08/04 07:30:11;;;;;;;;;6.25;4.75;;;;;26.14;46.04;100919.06;5020385;28;45526;-64
2022/08/04 07:32:38;;;;;;;;;3.00;3.00;;;;;26.12;47.01;100923.81;5020417;28;45279;-64
2022/08/04 07:35:06;;;;;;;;;3.25;3.25;;;;;26.13;46.45;100922.78;5020434;28;45308;-65
2022/08/04 07:37:31;;;;;;;;;4.00;2.25;;;;;26.09;46.29;100927.69;5020172;28;45415;-64
2022/08/04 07:39:57;;;;;;;;;5.00;2.00;;;;;26.11;46.88;100924.81;5020138;28;45484;-65
2022/08/04 07:42:23;;;;;;;;;3.00;3.00;;;;;26.13;46.00;100926.41;5020226;28;45248;-64
2022/08/04 07:44:48;;;;;;;;;1.00;1.00;;;;;26.14;46.74;100933.59;5020199;28;45417;-65
2022/08/04 07:47:14;;;;;;;;;3.75;2.75;;;;;26.10;46.77;100929.44;5020114;28;47110;-65
2022/08/04 07:49:43;;;;;;;;;3.00;2.00;;;;;26.10;46.79;100928.56;5020152;28;45244;-64
2022/08/04 07:52:08;;;;;;;;;2.25;2.00;;;;;26.08;46.93;100915.03;5017209;28;45641;-65
2022/08/04 07:54:35;;;;;;;;;3.50;2.00;;;;;26.04;46.77;100919.94;5016922;28;45565;-65
2022/08/04 07:57:00;;;;;;;;;4.00;3.00;;;;;26.02;46.83;100932.88;5019894;28;45419;-65
2022/08/04 07:59:26;;;;;;;;;5.00;4.00;;;;;26.05;47.54;100932.59;5020189;28;45518;-64
2022/08/04 08:01:53;;;;;;;;;2.75;2.25;;;;;26.04;47.88;100933.63;5019883;28;45320;-64
2022/08/04 08:04:19;;;;;;;;;2.75;2.50;;;;;26.02;48.82;100948.44;5020132;28;45382;-65
2022/08/04 08:06:45;;;;;;;;;5.00;3.00;;;;;25.98;50.23;100944.28;5019789;28;46395;-65
2022/08/04 08:09:23;;;;;;;;;3.00;3.00;;;;;25.98;50.08;100949.75;5018409;28;45198;-65
2022/08/04 08:11:50;;;;;;;;;3.00;3.00;;;;;25.93;49.43;100949.25;5019766;28;45376;-65
2022/08/04 08:14:17;;;;;;;;;6.00;3.00;;;;;25.87;51.21;100939.78;5019860;28;45331;-65
2022/08/04 08:16:43;;;;;;;;;3.00;2.75;;;;;25.85;50.84;100952.75;5019950;28;46344;-65
2022/08/04 08:19:09;;;;;;;;;9.00;4.50;;;;;25.83;50.58;100963.81;5019823;28;45241;-65
2022/08/04 08:21:34;;;;;;;;;5.00;3.25;;;;;25.84;51.21;100967.41;5019747;28;45373;-64
2022/08/04 08:24:00;;;;;;;;;4.00;3.50;;;;;25.82;51.13;100966.69;5019479;28;45239;-65
2022/08/04 08:26:26;;;;;;;;;3.00;3.00;;;;;25.82;51.60;100978.50;5017574;28;46172;-65
2022/08/04 08:28:51;;;;;;;;;2.75;2.00;;;;;25.79;51.08;100969.72;5019467;28;45217;-65
2022/08/04 08:31:17;;;;;;;;;6.00;3.25;;;;;25.77;50.77;100958.06;5021131;28;45210;-65
2022/08/04 08:33:43;;;;;;;;;2.25;2.25;;;;;25.74;50.60;100953.72;5021849;28;51845;-65
2022/08/04 08:36:15;;;;;;;;;3.00;3.00;;;;;25.74;51.78;100961.94;5022129;28;45478;-64
2022/08/04 08:38:47;;;;;;;;;3.50;3.00;;;;;25.77;51.29;100967.13;5022888;28;45297;-65
2022/08/04 08:41:34;;;;;;;;;2.75;2.50;;;;;25.79;51.34;100967.84;5023184;28;45439;-65
2022/08/04 08:44:11;;;;;;;;;3.25;3.25;;;;;25.81;51.47;100976.78;5022830;28;45689;-65
2022/08/04 08:47:02;;;;;;;;;3.00;3.00;;;;;25.82;51.13;100988.56;5022973;28;46083;-65
2022/08/04 08:50:09;;;;;;;;;4.75;3.00;;;;;25.84;51.31;100967.41;5003479;28;45442;-65
2022/08/04 08:52:49;;;;;;;;;3.75;3.00;;;;;25.82;50.89;100963.97;5021095;28;45457;-65
2022/08/04 08:55:39;;;;;;;;;3.50;3.50;;;;;25.83;51.25;100972.03;5022612;28;45437;-65
2022/08/04 08:58:41;;;;;;;;;2.50;2.50;;;;;25.84;51.75;100960.09;5022535;28;46379;-65
2022/08/04 09:01:28;;;;;;;;;3.25;2.00;;;;;25.82;52.07;100962.09;5022848;28;45313;-65
2022/08/04 09:04:18;;;;;;;;;2.25;2.25;;;;;25.84;51.66;100951.88;5022974;28;45304;-65
2022/08/04 09:06:59;;;;;;;;;5.00;3.75;;;;;25.80;51.33;100953.16;5022627;28;45252;-65
2022/08/04 09:09:35;;;;;;;;;5.00;1.00;;;;;25.81;52.06;100957.63;5022409;28;45488;-65
2022/08/04 09:12:12;;;;;;;;;5.75;3.00;;;;;25.81;51.67;100960.38;5022689;28;45159;-65
2022/08/04 09:14:53;;;;;;;;;3.00;3.00;;;;;25.79;51.86;100972.44;5022515;28;45341;-65
2022/08/04 09:17:34;;;;;;;;;4.00;2.50;;;;;25.80;51.72;100976.91;5022676;28;45555;-65
2022/08/04 09:20:23;;;;;;;;;3.00;2.50;;;;;25.82;51.32;100977.63;5022473;28;46427;-65
2022/08/04 09:23:11;;;;;;;;;4.00;3.00;;;;;25.79;51.90;100986.97;5022528;28;45514;-64
2022/08/04 09:25:46;;;;;;;;;2.25;2.00;;;;;25.81;51.13;100993.19;5022304;28;45472;-65
2022/08/04 09:28:28;;;;;;;;;2.50;1.25;;;;;25.85;50.81;100985.56;5010416;28;45338;-65
2022/08/04 09:31:03;;;;;;;;;2.25;2.25;;;;;25.87;51.20;101000.78;5022136;28;45344;-65
2022/08/04 09:33:57;;;;;;;;;3.00;2.00;;;;;25.84;51.39;100989.28;5022470;28;45527;-65
2022/08/04 09:36:38;;;;;;;;;3.75;2.00;;;;;25.85;51.80;100983.69;5022580;28;45308;-64
2022/08/04 09:39:30;;;;;;;;;2.50;2.00;;;;;25.89;51.04;100985.13;5022010;28;45340;-65
2022/08/04 09:42:16;;;;;;;;;5.25;2.00;;;;;25.89;51.44;100984.25;5021019;28;46304;-65
2022/08/04 09:44:54;;;;;;;;;5.00;2.00;;;;;25.94;51.82;100994.75;5022310;28;45360;-65
2022/08/04 09:47:30;;;;;;;;;1.00;1.00;;;;;25.94;50.96;100995.63;5022255;28;45450;-65
2022/08/04 09:50:27;;;;;;;;;2.50;1.50;;;;;25.96;51.24;101010.06;5021031;28;45241;-65
2022/08/04 09:53:17;;;;;;;;;5.25;2.00;;;;;25.97;51.63;100997.25;5012693;28;46362;-64
2022/08/04 09:55:45;;;;;;;;;2.25;0.75;;;;;25.99;51.69;100998.81;5020702;28;45232;-64
2022/08/04 09:58:21;;;;;;;;;2.75;2.00;;;;;26.01;51.08;100993.19;5021837;28;45281;-64
2022/08/04 10:00:52;;;;;;;;;3.50;2.00;;;;;26.03;51.35;100994.81;5021734;28;45451;-65
2022/08/04 10:03:24;;;;;;;;;2.25;2.00;;;;;26.06;50.88;100990.91;5021431;28;46212;-64
2022/08/04 10:06:05;;;;;;;;;6.25;6.25;;;;;26.05;51.17;100979.09;5021966;28;45512;-64
2022/08/04 10:09:01;;;;;;;;;4.25;4.25;;;;;26.05;50.84;100987.31;5021421;28;45326;-64
2022/08/04 10:11:44;;;;;;;;;4.00;1.00;;;;;26.05;50.76;100992.78;5020113;28;45462;-64
2022/08/04 10:14:16;;;;;;;;;1.00;1.00;;;;;26.08;50.97;100977.97;5021576;28;46288;-65
2022/08/04 10:17:00;;;;;;;;;4.00;2.25;;;;;26.09;51.70;100987.88;5021652;28;45416;-65
2022/08/04 10:19:27;;;;;;;;;2.50;1.50;;;;;26.12;50.93;100982.13;5021596;28;45249;-64
2022/08/04 10:21:53;;;;;;;;;1.25;1.25;;;;;26.13;50.65;100985.72;5020259;28;45408;-64
2022/08/04 10:24:55;;;;;;;;;1.25;1.25;;;;;26.14;51.32;100974.63;5021083;28;46280;-65
2022/08/04 10:27:29;;;;;;;;;2.00;2.00;;;;;26.17;51.32;100989.91;5021071;28;45221;-65
2022/08/04 10:30:00;;;;;;;;;1.00;1.00;;;;;26.17;51.56;100987.16;5021761;28;45257;-64
2022/08/04 10:32:43;;;;;;;;;1.00;1.00;;;;;26.16;51.80;100991.78;5021233;28;45269;-65
2022/08/04 10:35:16;;;;;;;;;1.00;1.00;;;;;26.18;51.42;100984.28;5021228;28;46523;-64
2022/08/04 10:38:02;;;;;;;;;2.75;1.00;;;;;26.22;51.80;100985.69;5021013;28;45442;-65
2022/08/04 10:40:44;;;;;;;;;1.75;1.00;;;;;26.25;51.44;100979.94;5020835;28;45328;-65
2022/08/04 10:43:33;;;;;;;;;0.50;0.50;;;;;26.30;51.35;100973.19;5021073;28;45570;-65
2022/08/04 10:46:25;;;;;;;;;1.75;1.75;;;;;26.32;51.71;100969.28;5020865;28;45572;-65
2022/08/04 10:48:57;;;;;;;;;1.25;1.25;;;;;26.32;51.63;100968.41;5020835;28;45218;-65
2022/08/04 10:51:44;;;;;;;;;2.00;2.00;;;;;26.36;51.34;100959.78;5019191;28;45463;-65
2022/08/04 10:54:14;;;;;;;;;1.00;1.00;;;;;26.38;51.57;100959.59;5010775;28;45393;-65
2022/08/04 10:56:48;;;;;;;;;1.75;1.75;;;;;26.41;50.82;100962.06;5020700;28;45514;-65
2022/08/04 10:59:41;;;;;;;;;3.00;3.00;;;;;26.44;51.32;100964.50;5020946;28;45369;-65
2022/08/04 11:02:26;;;;;;;;;0.50;0.50;;;;;26.47;51.64;100964.22;5020706;28;45237;-65
2022/08/04 11:05:16;;;;;;;;;2.00;1.00;;;;;26.52;51.20;100967.34;5020781;28;45304;-65
2022/08/04 11:07:46;;;;;;;;;2.00;2.00;;;;;26.59;50.87;100973.09;5020364;28;46239;-65
2022/08/04 11:10:12;;;;;;;;;1.25;1.25;;;;;26.62;50.66;100968.19;5019128;28;45281;-65
2022/08/04 11:12:41;;;;;;;;;2.00;2.00;;;;;26.65;51.26;100966.19;5020928;28;45245;-65
2022/08/04 11:15:23;;;;;;;;;2.50;2.00;;;;;26.68;50.70;100972.25;5020513;28;45490;-65
2022/08/04 11:17:56;;;;;;;;;2.25;2.00;;;;;26.74;50.60;100971.63;5020458;28;47050;-65
2022/08/04 11:20:35;;;;;;;;;1.50;1.25;;;;;26.78;51.12;100966.72;5020494;28;45351;-65
2022/08/04 11:23:12;;;;;;;;;1.75;1.75;;;;;26.84;50.37;100968.88;5020651;28;45309;-65
2022/08/04 11:25:51;;;;;;;;;2.00;0.75;;;;;26.89;50.74;100968.41;5018038;28;45507;-66
2022/08/04 11:28:31;;;;;;;;;2.50;2.00;;;;;26.94;50.35;100975.16;5008710;28;47100;-65
2022/08/04 11:30:58;;;;;;;;;2.00;2.00;;;;;26.97;50.34;100972.13;5020370;28;45324;-65
2022/08/04 11:33:36;;;;;;;;;2.25;2.00;;;;;27.03;50.18;100978.00;5020490;28;45284;-65
2022/08/04 11:36:04;;;;;;;;;1.25;1.25;;;;;27.08;49.86;100978.41;5020235;28;45332;-65
2022/08/04 11:38:56;;;;;;;;;4.50;2.75;;;;;27.10;49.31;100980.00;5020156;28;47187;-65
2022/08/04 11:41:51;;;;;;;;;2.00;2.00;;;;;27.08;50.04;100978.41;5020183;28;45246;-65
2022/08/04 11:44:30;;;;;;;;;2.00;1.25;;;;;27.10;49.13;100973.66;5020280;28;45294;-65
2022/08/04 11:47:03;;;;;;;;;1.75;1.75;;;;;27.15;49.10;100982.28;5020320;28;45293;-65
2022/08/04 11:49:40;;;;;;;;;1.25;1.25;;;;;27.15;49.30;100983.16;5020009;28;46344;-66
2022/08/04 11:52:08;;;;;;;;;1.75;1.75;;;;;27.14;49.22;100972.34;5018335;28;45368;-65
2022/08/04 11:54:37;;;;;;;;;4.75;2.00;;;;;27.23;49.30;100978.78;5019659;28;45296;-65
2022/08/04 11:57:03;;;;;;;;;4.00;2.75;;;;;27.27;49.21;100985.69;5019815;28;45451;-65
2022/08/04 11:59:33;;;;;;;;;2.00;2.00;;;;;27.31;49.10;100978.91;5020210;28;45599;-65
2022/08/04 12:02:06;;;;;;;;;2.00;1.25;;;;;27.37;49.85;100977.44;5019770;28;45464;-65
2022/08/04 12:04:50;;;;;;;;;1.50;1.50;;;;;27.43;48.79;100993.25;5020105;28;45335;-65
2022/08/04 12:07:20;;;;;;;;;2.75;2.75;;;;;27.46;49.26;100982.84;5019314;28;45300;-65
2022/08/04 12:10:04;;;;;;;;;2.00;2.00;;;;;27.51;48.84;100980.50;5019623;28;46100;-65